Port Angeles, Washington
Current Conditions -  °F | °C
As of 11:53 PM on Thursday 20 Nov 2014 (Local Time) from KCLM Reporting Station
Haze Haze  
Wind Chill: 37°   Ceiling: 7000
Heat Index: 40°   Visibility: 5mi
Dew Point: 38°   Wind: 5mph
Humidity: 93%   Direction: 150°SSE
Pressure: 29.84"   Gusts: NA
Location:  48.12°N, 123.43°W
Report Text: KCLM 210753Z AUTO 15004KT 5SM BR SCT005 BKN070 04/03 A2984 RMK AO2 SLP107 T00440033 401060022 $
Loading
Personal Weather Stations






























Interactive Weather Map New forecast layout! Learn more

10-Day Weather Forecast

Advertisements
Track Severe Weather on mobile